Time;durP1;ratioP1;P1;durP2;ratioP2;P2;SDS_P1;SDS_P2;PMS_P1;PMS_P2;Temp;Humidity;BMP_temperature;BMP_pressure;BME280_temperature;BME280_humidity;BME280_pressure;Samples;Min_cycle;Max_cycle;Signal;HPM_P1;HPM_P2
2022/06/19 00:02:10;;;;;;;7.03;2.85;;;22.50;58.00;;;;;;4921191;29;20031;-91
2022/06/19 00:04:35;;;;;;;8.52;3.15;;;22.70;57.80;;;;;;4922549;29;20395;-90
2022/06/19 00:07:01;;;;;;;5.72;2.58;;;22.60;57.90;;;;;;4921459;29;20042;-90
2022/06/19 00:09:27;;;;;;;12.02;3.25;;;22.70;57.70;;;;;;4919917;29;20051;-91
2022/06/19 00:11:55;;;;;;;10.73;3.05;;;22.60;58.50;;;;;;4922546;29;20032;-90
2022/06/19 00:14:21;;;;;;;8.52;3.15;;;22.50;58.20;;;;;;4920403;29;20028;-90
2022/06/19 00:16:47;;;;;;;7.95;3.00;;;22.50;58.20;;;;;;4926493;29;20107;-91
2022/06/19 00:19:13;;;;;;;8.10;2.97;;;22.70;57.90;;;;;;4920669;29;20117;-90
2022/06/19 00:21:38;;;;;;;7.70;3.60;;;22.60;57.70;;;;;;4922880;29;20084;-91
2022/06/19 00:24:04;;;;;;;6.93;3.15;;;22.70;57.70;;;;;;4923008;29;20040;-91
2022/06/19 00:26:30;;;;;;;6.22;3.00;;;22.70;57.40;;;;;;4919995;29;20093;-90
2022/06/19 00:28:56;;;;;;;6.25;2.38;;;22.60;57.70;;;;;;4934193;29;20063;-91
2022/06/19 00:31:22;;;;;;;5.53;2.50;;;22.60;57.80;;;;;;4922269;29;20163;-91
2022/06/19 00:33:47;;;;;;;11.80;3.40;;;22.60;57.50;;;;;;4921933;29;20093;-91
2022/06/19 00:36:13;;;;;;;5.90;2.45;;;22.60;57.80;;;;;;4921625;29;20036;-90
2022/06/19 00:38:51;;;;;;;9.65;3.80;;;22.60;57.80;;;;;;4921205;29;20472;-91
2022/06/19 00:41:17;;;;;;;7.85;2.83;;;22.60;57.70;;;;;;4920965;29;20032;-91
2022/06/19 00:43:53;;;;;;;5.60;2.67;;;22.50;58.30;;;;;;4921379;29;20071;-90
2022/06/19 00:46:47;;;;;;;6.05;2.45;;;22.40;58.50;;;;;;4921844;29;20039;-90
2022/06/19 00:49:31;;;;;;;4.90;2.53;;;22.30;59.00;;;;;;4919760;29;20414;-91
2022/06/19 00:52:21;;;;;;;5.40;2.47;;;22.30;59.00;;;;;;4922822;29;20038;-90
2022/06/19 00:54:50;;;;;;;;;;;22.20;58.70;;;;;;4917357;29;20025;-90
2022/06/19 00:57:17;;;;;;;8.60;2.50;;;22.30;58.80;;;;;;4922894;29;20499;-89
2022/06/19 00:59:47;;;;;;;5.82;2.40;;;22.30;58.70;;;;;;4919637;29;20489;-90
2022/06/19 01:02:14;;;;;;;4.50;1.70;;;22.10;59.30;;;;;;4921468;29;20474;-90
2022/06/19 01:04:50;;;;;;;6.45;2.28;;;22.10;59.40;;;;;;4920221;29;20047;-89
2022/06/19 01:07:18;;;;;;;7.57;2.58;;;22.00;59.50;;;;;;4921223;29;20443;-89
2022/06/19 01:09:44;;;;;;;7.60;2.55;;;21.90;59.90;;;;;;4919084;29;20025;-89
2022/06/19 01:12:10;;;;;;;6.65;2.17;;;21.90;60.00;;;;;;4920500;29;20036;-91
2022/06/19 01:14:40;;;;;;;5.97;2.47;;;21.80;60.30;;;;;;4922687;29;20504;-88
2022/06/19 01:17:06;;;;;;;7.82;2.70;;;21.60;61.10;;;;;;4938424;29;20106;-89
2022/06/19 01:19:36;;;;;;;5.65;2.90;;;21.60;60.90;;;;;;4921833;29;20031;-91
2022/06/19 01:22:26;;;;;;;6.68;2.40;;;21.40;61.40;;;;;;4919138;29;20127;-90
2022/06/19 01:25:13;;;;;;;8.02;2.58;;;21.40;61.30;;;;;;4922212;29;20032;-91
2022/06/19 01:30:30;;;;;;;6.00;3.08;;;21.40;61.10;;;;;;4922982;29;20123;-90
2022/06/19 01:32:58;;;;;;;5.70;2.45;;;21.50;60.90;;;;;;4920194;29;20476;-90
2022/06/19 01:35:27;;;;;;;9.23;2.88;;;21.50;60.70;;;;;;4919639;29;20032;-91
2022/06/19 01:37:54;;;;;;;9.30;2.63;;;21.50;60.80;;;;;;4922280;29;20056;-92
2022/06/19 01:40:29;;;;;;;6.55;2.45;;;21.40;60.60;;;;;;4918799;29;20511;-90
2022/06/19 01:42:55;;;;;;;5.85;2.33;;;21.40;61.00;;;;;;4920882;29;20067;-89
2022/06/19 01:45:22;;;;;;;7.72;2.88;;;21.40;60.90;;;;;;4917029;29;20495;-92
2022/06/19 01:47:48;;;;;;;4.63;2.47;;;21.30;61.10;;;;;;4936549;29;20044;-89
2022/06/19 01:50:27;;;;;;;6.82;2.90;;;21.20;61.30;;;;;;4920191;29;20027;-91
2022/06/19 01:53:01;;;;;;;8.05;2.42;;;21.20;61.40;;;;;;4919589;29;20034;-89
2022/06/19 01:55:28;;;;;;;6.18;2.45;;;21.10;61.60;;;;;;4920673;29;20024;-89
2022/06/19 01:57:57;;;;;;;7.70;2.65;;;21.10;61.40;;;;;;4918397;29;20145;-90
2022/06/19 02:00:27;;;;;;;5.40;2.47;;;21.00;61.50;;;;;;4935909;29;20020;-90
2022/06/19 02:03:12;;;;;;;10.18;3.35;;;21.00;61.60;;;;;;4919381;29;20574;-89
2022/06/19 02:05:39;;;;;;;10.95;3.35;;;20.90;61.60;;;;;;4920576;29;20028;-91
2022/06/19 02:08:05;;;;;;;4.82;2.65;;;20.80;61.90;;;;;;4919671;29;20036;-91
2022/06/19 02:10:31;;;;;;;4.97;2.30;;;20.70;62.40;;;;;;4935590;29;20035;-90
2022/06/19 02:12:58;;;;;;;7.80;2.88;;;20.60;62.80;;;;;;4934466;29;20600;-90
2022/06/19 02:15:30;;;;;;;7.72;3.03;;;20.80;62.40;;;;;;4918174;29;20028;-90
2022/06/19 02:17:56;;;;;;;8.68;3.15;;;20.60;62.50;;;;;;4925207;29;20051;-90
2022/06/19 02:20:22;;;;;;;9.35;3.08;;;20.80;61.90;;;;;;4918412;29;20032;-90
2022/06/19 02:22:47;;;;;;;10.15;3.55;;;20.90;61.40;;;;;;4936456;29;20068;-90
2022/06/19 02:25:13;;;;;;;5.65;2.80;;;20.90;61.30;;;;;;4929873;29;20059;-89
2022/06/19 02:27:40;;;;;;;9.43;3.17;;;20.80;61.50;;;;;;4936845;29;20043;-89
2022/06/19 02:30:10;;;;;;;8.00;2.72;;;20.90;61.00;;;;;;4918649;29;20056;-89
2022/06/19 02:32:46;;;;;;;5.78;2.97;;;20.90;60.90;;;;;;4918899;29;20020;-90
2022/06/19 02:35:21;;;;;;;13.40;3.47;;;21.00;60.50;;;;;;4920797;29;20032;-90
2022/06/19 02:37:50;;;;;;;9.00;3.10;;;20.90;61.10;;;;;;4919300;29;20145;-90
2022/06/19 02:40:38;;;;;;;7.72;2.50;;;21.00;60.70;;;;;;4921432;29;20071;-91
2022/06/19 02:43:10;;;;;;;5.53;3.22;;;21.00;61.10;;;;;;4918349;29;20024;-91
2022/06/19 02:45:39;;;;;;;6.50;2.60;;;21.10;61.00;;;;;;4912664;29;20028;-89
2022/06/19 02:48:06;;;;;;;7.15;3.05;;;21.00;61.70;;;;;;4932685;29;20032;-88
2022/06/19 02:50:33;;;;;;;11.32;3.90;;;21.00;62.10;;;;;;4920775;29;20036;-91
2022/06/19 02:53:00;;;;;;;13.52;3.63;;;21.10;61.90;;;;;;4933559;29;20016;-90
2022/06/19 02:55:26;;;;;;;10.80;3.50;;;21.20;62.10;;;;;;4926928;29;20454;-90
2022/06/19 02:57:52;;;;;;;9.45;3.33;;;21.10;63.10;;;;;;4940124;29;20032;-88
2022/06/19 03:00:26;;;;;;;7.63;3.03;;;21.10;63.50;;;;;;4919251;29;20024;-87
2022/06/19 03:02:57;;;;;;;7.55;2.85;;;21.10;63.50;;;;;;4912693;29;20032;-87
2022/06/19 03:05:26;;;;;;;11.32;3.75;;;21.00;63.70;;;;;;4917805;29;20442;-88
2022/06/19 03:07:52;;;;;;;8.65;3.63;;;21.00;64.00;;;;;;4934795;29;20028;-88
2022/06/19 03:10:19;;;;;;;12.65;4.22;;;20.90;64.10;;;;;;4918108;29;20053;-88
2022/06/19 03:12:54;;;;;;;;;;;;;;;;;;;;;
2022/06/19 03:15:20;;;;;;;10.15;3.13;;;20.70;65.10;;;;;;4918882;29;20020;-89
2022/06/19 03:17:46;;;;;;;11.27;4.20;;;20.70;65.00;;;;;;4919169;29;20071;-88
2022/06/19 03:20:16;;;;;;;9.73;3.88;;;20.60;65.30;;;;;;4935487;29;20028;-89
2022/06/19 03:22:42;;;;;;;;;;;20.70;64.90;;;;;;4917025;29;20427;-88
2022/06/19 03:25:07;;;;;;;15.95;4.00;;;20.60;65.10;;;;;;4919143;29;19907;-89
2022/06/19 03:27:33;;;;;;;10.15;3.60;;;20.70;64.90;;;;;;4917710;29;20024;-88
2022/06/19 03:29:58;;;;;;;12.98;4.47;;;20.70;64.80;;;;;;4918475;29;20024;-88
2022/06/19 03:32:24;;;;;;;8.60;3.92;;;20.60;64.90;;;;;;4917193;29;20036;-87
2022/06/19 03:34:50;;;;;;;12.93;3.90;;;20.50;66.10;;;;;;4917810;29;20035;-89
2022/06/19 03:37:15;;;;;;;13.02;3.90;;;19.90;68.50;;;;;;4919913;29;20036;-91
2022/06/19 03:39:41;;;;;;;11.85;3.63;;;19.00;74.40;;;;;;4919231;29;20532;-88
2022/06/19 03:42:07;;;;;;;8.13;3.13;;;18.70;78.00;;;;;;4919958;29;20028;-87
2022/06/19 03:44:34;;;;;;;9.77;3.72;;;18.70;76.90;;;;;;4918026;29;20050;-89
2022/06/19 03:47:02;;;;;;;9.05;3.72;;;18.80;74.90;;;;;;4920077;29;20495;-89
2022/06/19 03:49:28;;;;;;;10.73;3.70;;;19.00;74.30;;;;;;4917975;29;20060;-89
2022/06/19 03:51:54;;;;;;;10.68;3.92;;;19.00;72.70;;;;;;4917387;29;20500;-90
2022/06/19 03:54:19;;;;;;;8.52;3.45;;;19.10;72.40;;;;;;4921262;29;20063;-88
2022/06/19 03:56:45;;;;;;;8.45;3.42;;;19.10;72.10;;;;;;4917896;29;20080;-89
2022/06/19 03:59:12;;;;;;;8.45;3.60;;;19.10;72.50;;;;;;4920912;29;20024;-89
2022/06/19 04:01:40;;;;;;;7.45;3.83;;;19.10;71.70;;;;;;4930839;29;20031;-90
2022/06/19 04:04:09;;;;;;;8.00;3.70;;;19.00;72.30;;;;;;4911436;29;20052;-91
2022/06/19 04:06:38;;;;;;;10.83;3.50;;;19.10;71.80;;;;;;4920988;29;20398;-91
2022/06/19 04:09:06;;;;;;;9.10;3.40;;;19.00;71.40;;;;;;4920627;29;20067;-89
2022/06/19 04:11:32;;;;;;;13.40;3.38;;;18.90;72.00;;;;;;4936721;29;20106;-88
2022/06/19 04:13:58;;;;;;;8.63;3.42;;;18.80;72.50;;;;;;4921458;29;20064;-89
2022/06/19 04:16:28;;;;;;;10.93;3.47;;;18.80;72.90;;;;;;4923892;29;20525;-88
2022/06/19 04:18:55;;;;;;;6.37;2.97;;;18.80;72.80;;;;;;4933521;29;20533;-88
2022/06/19 04:21:24;;;;;;;7.95;3.15;;;18.80;72.50;;;;;;4931567;29;20280;-89
2022/06/19 04:23:54;;;;;;;5.90;2.53;;;18.90;72.30;;;;;;4920453;29;20028;-90
2022/06/19 04:26:33;;;;;;;11.77;3.30;;;18.90;71.80;;;;;;4921889;29;20024;-89
2022/06/19 04:28:59;;;;;;;7.05;3.03;;;18.90;71.90;;;;;;4922130;29;20123;-92
2022/06/19 04:31:25;;;;;;;11.93;3.53;;;18.80;72.30;;;;;;4921880;29;20078;-90
2022/06/19 04:33:51;;;;;;;9.05;3.85;;;18.70;72.70;;;;;;4923672;29;20021;-91
2022/06/19 04:36:19;;;;;;;10.77;3.70;;;18.50;72.70;;;;;;4920173;29;20024;-88
2022/06/19 04:38:48;;;;;;;8.70;3.40;;;18.50;73.10;;;;;;4921937;29;20518;-90
2022/06/19 04:41:20;;;;;;;6.88;3.00;;;18.60;72.80;;;;;;4921361;29;20079;-89
2022/06/19 04:43:46;;;;;;;9.52;3.38;;;18.70;72.70;;;;;;4921577;29;20035;-89
2022/06/19 04:46:12;;;;;;;8.13;3.17;;;18.80;72.60;;;;;;4922224;29;20036;-89
2022/06/19 04:48:38;;;;;;;8.80;3.22;;;18.70;72.60;;;;;;4919932;29;20036;-89
2022/06/19 04:51:05;;;;;;;6.38;3.22;;;18.70;72.90;;;;;;4920859;29;20036;-89
2022/06/19 04:53:32;;;;;;;8.45;3.55;;;18.40;73.80;;;;;;4919794;29;20458;-88
2022/06/19 04:55:59;;;;;;;9.85;3.60;;;18.70;73.20;;;;;;4920085;29;20119;-88
2022/06/19 04:58:25;;;;;;;9.95;3.05;;;18.70;72.70;;;;;;4919151;29;20024;-90
2022/06/19 05:00:52;;;;;;;6.78;3.13;;;18.80;72.60;;;;;;4919397;29;20051;-88
2022/06/19 05:03:20;;;;;;;8.80;3.65;;;18.80;72.50;;;;;;4918829;29;20056;-88
2022/06/19 05:05:47;;;;;;;6.55;2.90;;;19.10;71.60;;;;;;4935104;29;20534;-89
2022/06/19 05:08:13;;;;;;;9.30;3.42;;;19.20;70.50;;;;;;4918474;29;20036;-90
2022/06/19 05:10:41;;;;;;;7.25;2.92;;;19.40;70.40;;;;;;4920757;29;20060;-89
2022/06/19 05:13:22;;;;;;;5.68;2.53;;;19.40;69.90;;;;;;4919463;29;20112;-90
2022/06/19 05:15:49;;;;;;;9.02;3.25;;;19.50;69.50;;;;;;4918048;29;20183;-88
2022/06/19 05:18:17;;;;;;;11.43;3.20;;;19.50;69.40;;;;;;4921714;29;20059;-89
2022/06/19 05:20:43;;;;;;;9.10;3.38;;;19.60;69.20;;;;;;4920508;29;20039;-91
2022/06/19 05:23:09;;;;;;;6.15;3.05;;;19.70;69.10;;;;;;4919636;29;20040;-89
2022/06/19 05:25:36;;;;;;;10.93;3.47;;;19.80;69.10;;;;;;4935988;29;20119;-92
2022/06/19 05:28:02;;;;;;;10.77;3.33;;;19.90;68.50;;;;;;4921622;29;20560;-90
2022/06/19 05:30:28;;;;;;;9.73;2.50;;;19.90;68.50;;;;;;4923491;29;20055;-90
2022/06/19 05:32:53;;;;;;;8.13;3.42;;;20.00;68.20;;;;;;4921769;29;20112;-92
2022/06/19 05:35:19;;;;;;;7.82;2.75;;;20.00;68.00;;;;;;4920724;29;20090;-90
2022/06/19 05:37:45;;;;;;;8.38;3.67;;;20.00;68.40;;;;;;4919703;29;20028;-94
2022/06/19 05:40:11;;;;;;;8.32;2.90;;;20.00;68.30;;;;;;4920784;29;20024;-90
2022/06/19 05:42:37;;;;;;;8.20;3.03;;;20.00;68.20;;;;;;4933550;29;20035;-91
2022/06/19 05:45:04;;;;;;;9.70;3.60;;;20.10;68.30;;;;;;4935901;29;20023;-88
2022/06/19 05:47:29;;;;;;;8.77;3.05;;;20.10;68.40;;;;;;4931949;29;20028;-92
2022/06/19 05:49:56;;;;;;;11.18;3.42;;;20.20;68.30;;;;;;4944484;29;20051;-92
2022/06/19 05:52:24;;;;;;;9.23;3.50;;;20.20;68.30;;;;;;4923926;29;20040;-91
2022/06/19 05:54:53;;;;;;;7.57;2.83;;;20.10;68.50;;;;;;4920042;29;20028;-93
2022/06/19 05:57:20;;;;;;;6.43;3.05;;;20.00;68.90;;;;;;4921071;29;20028;-91
2022/06/19 05:59:46;;;;;;;8.55;3.05;;;20.00;68.60;;;;;;4934968;29;20028;-84
2022/06/19 06:02:16;;;;;;;8.63;2.90;;;20.00;69.20;;;;;;4919166;29;20031;-85
2022/06/19 06:04:42;;;;;;;;;;;20.00;68.60;;;;;;4919172;29;20032;-85
2022/06/19 06:07:11;;;;;;;7.35;3.10;;;19.90;69.50;;;;;;4918340;29;19907;-84
2022/06/19 06:09:37;;;;;;;11.25;3.20;;;20.00;69.00;;;;;;4918938;29;20044;-82
2022/06/19 06:12:04;;;;;;;5.35;2.97;;;20.00;68.60;;;;;;4918666;29;20028;-86
2022/06/19 06:14:31;;;;;;;11.85;3.13;;;20.00;69.70;;;;;;4918260;29;20083;-83
2022/06/19 06:16:56;;;;;;;12.35;4.13;;;19.90;69.20;;;;;;4920224;29;20506;-81
2022/06/19 06:19:22;;;;;;;11.93;3.53;;;19.90;68.70;;;;;;4933666;29;20067;-82
2022/06/19 06:21:48;;;;;;;13.57;3.60;;;19.90;68.70;;;;;;4918688;29;20032;-84
2022/06/19 06:24:15;;;;;;;12.00;3.30;;;19.90;68.60;;;;;;4919146;29;20036;-86
2022/06/19 06:26:41;;;;;;;16.23;3.10;;;19.70;71.70;;;;;;4919113;29;20103;-83
2022/06/19 06:29:07;;;;;;;10.38;3.20;;;19.30;83.20;;;;;;4917386;29;20035;-85
2022/06/19 06:31:34;;;;;;;8.38;3.35;;;19.30;83.30;;;;;;4919175;29;20380;-84
2022/06/19 06:33:59;;;;;;;15.10;3.65;;;19.40;80.70;;;;;;4917932;29;20078;-84
2022/06/19 06:36:26;;;;;;;15.40;4.03;;;19.70;77.60;;;;;;4918698;29;20036;-86
2022/06/19 06:38:52;;;;;;;10.32;3.80;;;19.80;74.30;;;;;;4918779;29;20036;-83
2022/06/19 06:41:18;;;;;;;9.25;3.03;;;19.80;73.60;;;;;;4918521;29;20034;-84
2022/06/19 06:43:45;;;;;;;11.07;3.15;;;19.60;73.20;;;;;;4933720;29;20135;-81
2022/06/19 06:46:15;;;;;;;11.85;3.47;;;19.50;73.20;;;;;;4918570;29;20028;-83
2022/06/19 06:48:41;;;;;;;10.98;4.03;;;19.60;72.60;;;;;;4917331;29;20103;-81
2022/06/19 06:51:09;;;;;;;12.27;3.42;;;19.80;71.90;;;;;;4933689;29;20126;-82
2022/06/19 06:53:34;;;;;;;8.38;3.08;;;19.80;71.70;;;;;;4916859;29;20039;-82
2022/06/19 06:56:00;;;;;;;11.85;3.60;;;19.80;71.60;;;;;;4915354;29;20028;-82
2022/06/19 06:58:26;;;;;;;9.13;3.42;;;19.80;71.60;;;;;;4916590;29;20025;-82
2022/06/19 07:00:52;;;;;;;17.63;4.07;;;19.80;71.30;;;;;;4917740;29;20047;-81
2022/06/19 07:03:17;;;;;;;13.23;3.42;;;19.70;70.90;;;;;;4918577;29;20166;-82
2022/06/19 07:05:43;;;;;;;12.65;3.78;;;19.70;71.30;;;;;;4919020;29;20032;-79
2022/06/19 07:08:08;;;;;;;13.00;4.13;;;19.70;71.30;;;;;;4918019;29;20107;-83
2022/06/19 07:10:34;;;;;;;14.98;3.75;;;19.70;71.50;;;;;;4918826;29;20033;-87
2022/06/19 07:13:00;;;;;;;11.07;3.47;;;19.80;70.90;;;;;;4919722;29;20048;-90
2022/06/19 07:15:26;;;;;;;8.52;3.42;;;19.80;71.00;;;;;;4923439;29;20025;-88
2022/06/19 07:17:53;;;;;;;13.20;3.92;;;20.00;70.40;;;;;;4915277;29;20526;-82
2022/06/19 07:20:18;;;;;;;18.92;4.15;;;20.00;70.40;;;;;;4932797;29;20084;-91
2022/06/19 07:22:44;;;;;;;11.75;3.90;;;20.00;70.90;;;;;;4933320;29;20024;-82
2022/06/19 07:25:19;;;;;;;6.43;3.05;;;20.00;70.50;;;;;;4918642;29;20462;-87
2022/06/19 07:27:46;;;;;;;12.57;3.60;;;19.90;70.40;;;;;;4916436;29;20030;-88
2022/06/19 07:30:22;;;;;;;12.93;3.33;;;19.90;70.50;;;;;;4912958;29;20037;-88
2022/06/19 07:32:48;;;;;;;11.18;2.80;;;19.70;71.00;;;;;;4907495;29;20040;-88
2022/06/19 07:35:14;;;;;;;10.05;3.00;;;19.50;71.30;;;;;;4911411;29;20028;-88
2022/06/19 07:37:40;;;;;;;9.70;3.20;;;19.40;71.20;;;;;;4910370;29;20052;-90
2022/06/19 07:40:06;;;;;;;12.85;3.40;;;19.10;78.60;;;;;;4919451;29;20119;-92
2022/06/19 07:42:32;;;;;;;11.80;3.03;;;18.60;86.30;;;;;;4919713;29;20040;-93
2022/06/19 07:44:58;;;;;;;13.50;3.58;;;18.50;88.80;;;;;;4930566;29;20156;-84
2022/06/19 07:50:10;;;;;;;9.82;3.50;;;19.40;89.00;;;;;;4922822;29;20105;-92
2022/06/19 07:52:40;;;;;;;8.80;2.90;;;19.70;88.00;;;;;;4939368;29;20056;-92
2022/06/19 07:55:11;;;;;;;11.75;2.80;;;19.90;86.20;;;;;;4922429;29;20136;-91
2022/06/19 07:57:37;;;;;;;12.02;3.30;;;20.00;84.10;;;;;;4922973;29;20024;-92
2022/06/19 08:00:05;;;;;;;9.07;2.90;;;20.30;80.60;;;;;;4920221;29;20028;-91
2022/06/19 08:02:32;;;;;;;10.82;3.60;;;20.80;76.40;;;;;;4945614;29;20088;-90
2022/06/19 08:04:58;;;;;;;13.77;3.33;;;20.80;74.00;;;;;;4919217;29;20383;-90
2022/06/19 08:07:24;;;;;;;12.23;2.90;;;20.60;72.80;;;;;;4922998;29;20032;-91
2022/06/19 08:09:49;;;;;;;13.07;3.55;;;20.50;73.40;;;;;;4919494;29;20046;-90
2022/06/19 08:12:15;;;;;;;8.20;2.80;;;20.50;72.10;;;;;;4911819;29;20039;-91
2022/06/19 08:14:41;;;;;;;12.82;3.60;;;20.40;72.50;;;;;;4938190;29;20532;-91
2022/06/19 08:17:08;;;;;;;7.63;3.20;;;20.40;72.70;;;;;;4931519;29;20047;-89
2022/06/19 08:19:33;;;;;;;9.98;2.70;;;20.50;72.10;;;;;;4930470;29;20506;-91
2022/06/19 08:21:59;;;;;;;10.07;3.20;;;20.70;71.70;;;;;;4935725;29;20047;-83
2022/06/19 08:24:25;;;;;;;10.73;3.90;;;20.80;71.40;;;;;;4917409;29;20039;-91
2022/06/19 08:27:11;;;;;;;11.25;3.75;;;20.80;71.30;;;;;;4921838;29;20032;-91
2022/06/19 08:29:36;;;;;;;13.10;3.08;;;20.80;71.00;;;;;;4922209;29;20042;-87
2022/06/19 08:32:02;;;;;;;10.68;3.00;;;20.80;71.20;;;;;;4918248;29;20100;-92
2022/06/19 08:34:28;;;;;;;16.33;3.88;;;20.80;70.60;;;;;;4932521;29;20024;-92
2022/06/19 08:36:55;;;;;;;14.10;3.47;;;20.80;71.00;;;;;;4916658;29;20060;-91
2022/06/19 08:39:22;;;;;;;14.13;3.53;;;20.80;70.90;;;;;;4930242;29;20027;-92
2022/06/19 08:42:12;;;;;;;17.42;3.13;;;21.00;70.50;;;;;;4932805;29;20228;-93
2022/06/19 08:45:05;;;;;;;7.10;2.97;;;20.90;70.80;;;;;;4922857;29;20036;-93
2022/06/19 08:47:49;;;;;;;10.82;3.42;;;20.80;71.60;;;;;;4913560;29;20031;-92
2022/06/19 08:50:39;;;;;;;8.63;3.05;;;20.70;71.40;;;;;;4938408;29;20043;-91
2022/06/19 08:53:43;;;;;;;9.45;3.22;;;20.70;71.20;;;;;;4913991;29;20511;-93
2022/06/19 08:56:30;;;;;;;10.32;3.20;;;20.50;70.80;;;;;;4918294;29;20032;-92
2022/06/19 08:59:25;;;;;;;13.18;4.28;;;20.30;71.20;;;;;;4925303;29;20043;-91
2022/06/19 09:02:18;;;;;;;6.43;2.88;;;20.30;71.70;;;;;;4917187;29;20499;-86
2022/06/19 09:08:30;;;;;;;9.57;3.45;;;20.00;71.80;;;;;;4916784;29;20094;-93
2022/06/19 09:11:19;;;;;;;5.93;2.85;;;20.00;72.30;;;;;;4933892;29;20028;-93
2022/06/19 09:14:03;;;;;;;10.93;3.70;;;20.00;72.10;;;;;;4928094;29;20040;-93
2022/06/19 09:16:36;;;;;;;8.65;3.08;;;20.10;71.70;;;;;;4925607;29;20041;-92
2022/06/19 09:19:29;;;;;;;11.30;3.95;;;20.10;70.50;;;;;;4939029;29;21427;-85
2022/06/19 09:22:07;;;;;;;13.80;5.18;;;20.30;71.30;;;;;;4918512;29;20044;-84
2022/06/19 09:24:51;;;;;;;10.25;2.80;;;20.30;70.80;;;;;;4916595;29;20042;-93
2022/06/19 09:27:23;;;;;;;9.98;2.85;;;20.10;70.40;;;;;;4939713;29;20485;-93
2022/06/19 09:29:58;;;;;;;7.53;2.92;;;20.20;70.50;;;;;;4952417;29;20446;-92
2022/06/19 09:32:34;;;;;;;13.82;3.10;;;20.30;70.50;;;;;;4936935;29;20356;-92
2022/06/19 09:35:09;;;;;;;10.35;2.78;;;20.60;69.80;;;;;;4924094;29;20031;-93
2022/06/19 09:38:05;;;;;;;10.25;3.50;;;20.80;69.00;;;;;;4919434;29;20036;-91
2022/06/19 09:40:41;;;;;;;8.30;2.63;;;20.80;68.70;;;;;;4920177;29;20091;-89
2022/06/19 09:43:23;;;;;;;12.77;3.03;;;20.80;68.40;;;;;;4921198;29;20032;-90
2022/06/19 09:46:15;;;;;;;7.85;3.13;;;20.70;68.90;;;;;;4924285;29;20020;-92
2022/06/19 09:48:54;;;;;;;10.90;3.45;;;20.70;68.80;;;;;;4933976;29;20082;-94
2022/06/19 09:51:29;;;;;;;6.80;3.00;;;20.50;68.90;;;;;;4925196;29;20063;-91
2022/06/19 09:53:58;;;;;;;7.47;2.60;;;20.50;69.40;;;;;;4935838;29;20060;-89
2022/06/19 09:56:29;;;;;;;8.65;2.65;;;20.80;68.70;;;;;;4935437;29;20020;-90
2022/06/19 09:58:58;;;;;;;12.65;3.00;;;21.00;67.90;;;;;;4935702;29;20032;-93
2022/06/19 10:01:25;;;;;;;10.30;3.20;;;21.20;67.60;;;;;;4922290;29;20024;-92
2022/06/19 10:04:03;;;;;;;6.72;2.28;;;21.40;67.20;;;;;;4924404;29;20103;-91
2022/06/19 10:06:45;;;;;;;7.55;2.97;;;21.40;66.50;;;;;;4927739;29;20032;-93
2022/06/19 10:09:16;;;;;;;9.38;2.70;;;21.70;66.10;;;;;;4933337;29;20032;-92
2022/06/19 10:11:42;;;;;;;6.35;3.15;;;22.10;65.90;;;;;;4933264;29;20032;-90
2022/06/19 10:14:12;;;;;;;7.78;2.80;;;22.30;65.50;;;;;;4916217;29;20024;-93
2022/06/19 10:16:55;;;;;;;11.00;2.50;;;22.60;63.90;;;;;;4916629;29;20484;-91
2022/06/19 10:19:24;;;;;;;7.93;2.53;;;23.50;62.30;;;;;;4912783;29;20621;-91
2022/06/19 10:22:16;;;;;;;14.25;3.13;;;24.40;58.90;;;;;;4930256;29;20039;-87
2022/06/19 10:25:01;;;;;;;7.28;2.03;;;24.80;57.10;;;;;;4918955;29;20056;-93
2022/06/19 10:27:38;;;;;;;5.85;2.08;;;25.50;57.30;;;;;;4932526;29;20723;-95
2022/06/19 10:30:14;;;;;;;6.45;2.40;;;26.30;53.80;;;;;;4932578;29;20036;-89
2022/06/19 10:33:00;;;;;;;7.28;1.92;;;27.10;52.70;;;;;;4934964;29;20028;-90
2022/06/19 10:35:49;;;;;;;5.82;1.83;;;26.80;51.50;;;;;;4917000;29;20103;-88
2022/06/19 10:38:35;;;;;;;;;;;27.20;50.30;;;;;;4915834;29;20043;-91
2022/06/19 10:44:31;;;;;;;6.85;2.80;;;27.00;51.00;;;;;;4907675;29;20047;-92
2022/06/19 10:47:19;;;;;;;5.50;2.20;;;26.80;52.50;;;;;;4919226;29;20513;-89
2022/06/19 10:50:01;;;;;;;9.05;3.30;;;26.60;51.40;;;;;;4917953;29;20119;-91
2022/06/19 10:52:57;;;;;;;7.57;2.40;;;26.40;52.70;;;;;;4941685;29;20028;-93
2022/06/19 10:56:00;;;;;;;6.10;2.15;;;26.30;53.00;;;;;;4937395;29;20107;-88
2022/06/19 10:58:29;;;;;;;7.72;2.72;;;26.00;52.80;;;;;;4921151;29;20060;-90
2022/06/19 11:01:05;;;;;;;8.68;3.08;;;25.80;53.70;;;;;;4916747;29;20040;-92
2022/06/19 11:04:07;;;;;;;10.27;3.10;;;25.90;54.10;;;;;;4929053;29;20032;-89
2022/06/19 11:06:58;;;;;;;10.40;4.93;;;26.00;53.60;;;;;;4917493;29;20036;-93
2022/06/19 11:09:49;;;;;;;8.63;4.53;;;26.00;52.70;;;;;;4910393;29;20035;-88
2022/06/19 11:12:38;;;;;;;9.85;3.22;;;26.20;52.90;;;;;;4927838;29;20024;-94
2022/06/19 11:15:08;;;;;;;6.68;2.78;;;26.40;52.30;;;;;;4921734;29;20036;-86
2022/06/19 11:17:39;;;;;;;7.50;2.72;;;26.30;52.80;;;;;;4923407;29;20044;-84
2022/06/19 11:20:24;;;;;;;7.45;3.00;;;26.00;53.00;;;;;;4922673;29;20028;-86
2022/06/19 11:22:58;;;;;;;8.75;2.85;;;25.90;53.60;;;;;;4936170;29;20115;-87
2022/06/19 11:25:32;;;;;;;10.75;3.00;;;26.00;52.10;;;;;;4921760;29;20028;-88
2022/06/19 11:28:03;;;;;;;8.50;3.45;;;26.00;52.60;;;;;;4922610;29;20036;-87
2022/06/19 11:30:31;;;;;;;6.13;2.42;;;26.10;53.00;;;;;;4922982;29;20052;-84
2022/06/19 11:32:57;;;;;;;7.82;3.00;;;26.00;52.40;;;;;;4922573;29;20021;-83
2022/06/19 11:35:24;;;;;;;5.85;3.28;;;25.80;53.60;;;;;;4917359;29;20428;-84
2022/06/19 11:37:55;;;;;;;8.93;3.20;;;25.60;53.70;;;;;;4918244;29;20115;-81
2022/06/19 11:40:33;;;;;;;9.77;3.10;;;25.20;54.30;;;;;;4903771;29;20453;-81
2022/06/19 11:43:00;;;;;;;9.48;4.43;;;25.10;55.50;;;;;;4936897;29;20024;-82
2022/06/19 11:45:26;;;;;;;7.82;3.35;;;24.90;55.50;;;;;;4917775;29;20032;-90
2022/06/19 11:47:58;;;;;;;13.45;3.72;;;24.70;56.20;;;;;;4925566;29;20072;-81
2022/06/19 11:50:32;;;;;;;6.65;3.45;;;24.50;56.60;;;;;;4918521;29;20119;-85
2022/06/19 11:53:03;;;;;;;9.02;4.03;;;24.30;57.20;;;;;;4936975;29;20068;-84
2022/06/19 11:55:37;;;;;;;7.53;4.60;;;24.20;57.70;;;;;;4916825;29;20576;-83
2022/06/19 11:58:26;;;;;;;8.45;3.50;;;24.10;57.90;;;;;;4912900;29;20083;-91
2022/06/19 12:01:17;;;;;;;7.80;3.70;;;24.00;59.60;;;;;;4932610;29;20036;-85
2022/06/19 12:03:56;;;;;;;9.68;4.03;;;24.20;58.70;;;;;;4911958;29;20044;-87
2022/06/19 12:06:44;;;;;;;7.18;3.10;;;24.20;58.80;;;;;;4927816;29;20104;-89
2022/06/19 12:09:28;;;;;;;8.43;4.18;;;24.20;58.30;;;;;;4911163;29;20061;-89
2022/06/19 12:12:26;;;;;;;8.95;4.07;;;24.40;57.90;;;;;;4914364;29;20033;-89
2022/06/19 12:15:01;;;;;;;7.57;3.30;;;24.60;58.00;;;;;;4909001;29;20071;-88
2022/06/19 12:17:32;;;;;;;8.18;3.70;;;24.90;57.40;;;;;;4916301;29;20071;-88
2022/06/19 12:20:07;;;;;;;6.55;3.38;;;25.20;57.00;;;;;;4926908;29;20067;-88
2022/06/19 12:22:50;;;;;;;7.55;3.45;;;25.40;56.10;;;;;;4934969;29;20021;-87
2022/06/19 12:25:39;;;;;;;7.28;3.28;;;25.60;56.10;;;;;;4924258;29;20037;-88
2022/06/19 12:28:10;;;;;;;6.28;3.08;;;25.70;55.40;;;;;;4914051;29;20036;-87
2022/06/19 12:30:53;;;;;;;6.22;3.03;;;25.80;56.00;;;;;;4913376;29;20080;-88
2022/06/19 12:33:30;;;;;;;7.28;2.83;;;25.80;55.50;;;;;;4903050;29;20032;-87
2022/06/19 12:35:56;;;;;;;8.07;3.30;;;25.80;55.50;;;;;;4930168;29;20032;-87
2022/06/19 12:38:24;;;;;;;11.82;4.43;;;25.70;55.60;;;;;;4914141;29;20035;-86
2022/06/19 12:41:11;;;;;;;4.85;3.30;;;25.70;56.30;;;;;;4904647;29;20036;-86
2022/06/19 12:43:51;;;;;;;7.65;2.88;;;25.80;56.00;;;;;;4924840;29;20147;-85
2022/06/19 12:46:35;;;;;;;5.10;3.20;;;25.80;56.00;;;;;;4919562;29;20076;-85
2022/06/19 12:49:41;;;;;;;7.32;3.72;;;25.60;56.10;;;;;;4910751;29;20043;-85
2022/06/19 12:52:23;;;;;;;7.82;3.90;;;25.50;56.70;;;;;;4922203;29;20068;-93
2022/06/19 12:55:05;;;;;;;8.52;3.58;;;25.30;57.30;;;;;;4920214;29;20060;-84
2022/06/19 12:57:59;;;;;;;7.15;3.63;;;25.20;58.40;;;;;;4928246;29;20028;-89
2022/06/19 13:00:39;;;;;;;7.20;3.70;;;25.20;58.90;;;;;;4919581;29;20522;-89
2022/06/19 13:03:22;;;;;;;11.00;5.80;;;25.30;58.90;;;;;;4918720;29;20024;-88
2022/06/19 13:06:03;;;;;;;5.55;3.35;;;25.10;58.60;;;;;;4919668;29;20115;-89
2022/06/19 13:08:51;;;;;;;7.72;3.50;;;25.10;57.80;;;;;;4915389;29;20495;-88
2022/06/19 13:11:43;;;;;;;7.63;4.07;;;25.00;58.10;;;;;;4926601;29;20446;-86
2022/06/19 13:14:18;;;;;;;5.57;3.50;;;25.10;57.60;;;;;;4907685;29;20037;-86
2022/06/19 13:17:03;;;;;;;8.05;3.50;;;25.10;58.10;;;;;;4910775;29;20035;-86
2022/06/19 13:20:03;;;;;;;6.13;3.63;;;25.30;57.70;;;;;;4916957;29;20042;-86
2022/06/19 13:22:29;;;;;;;6.32;3.05;;;25.30;58.20;;;;;;4882343;29;20043;-87
2022/06/19 13:25:05;;;;;;;10.85;4.10;;;25.20;57.80;;;;;;4938405;29;20032;-87